createdAt,value
2023-02-11T00:00:42.782Z,-2.62
2023-02-11T00:03:10.879Z,-2.50
2023-02-11T00:05:39.002Z,-2.47
2023-02-11T00:08:06.976Z,-2.64
2023-02-11T00:10:35.015Z,-2.72
2023-02-11T00:13:03.039Z,-2.60
2023-02-11T00:15:31.036Z,-2.79
2023-02-11T00:18:00.373Z,-2.87
2023-02-11T00:20:28.424Z,-2.88
2023-02-11T00:22:56.427Z,-2.80
2023-02-11T00:25:24.427Z,-3.02
2023-02-11T00:27:52.366Z,-2.90
2023-02-11T00:30:20.390Z,-3.00
2023-02-11T00:32:48.363Z,-3.04
2023-02-11T00:35:17.975Z,-3.07
2023-02-11T00:37:45.920Z,-3.22
2023-02-11T00:40:16.157Z,-3.22
2023-02-11T00:42:44.147Z,-3.24
2023-02-11T00:45:12.136Z,-3.37
2023-02-11T00:47:40.114Z,-3.51
2023-02-11T00:50:08.633Z,-3.26
2023-02-11T00:52:37.954Z,-3.24
2023-02-11T00:55:06.503Z,-3.17
2023-02-11T00:57:34.540Z,-3.22
2023-02-11T01:00:02.601Z,-3.20
2023-02-11T01:02:30.562Z,-3.32
2023-02-11T01:04:59.922Z,-3.20
2023-02-11T01:07:28.136Z,-3.09
2023-02-11T01:09:58.111Z,-3.03
2023-02-11T01:12:26.495Z,-3.09
2023-02-11T01:14:54.515Z,-3.11
2023-02-11T01:17:22.512Z,-3.08
2023-02-11T01:19:50.586Z,-3.11
2023-02-11T01:22:18.616Z,-3.27
2023-02-11T01:24:46.584Z,-3.39
2023-02-11T01:27:16.087Z,-3.45
2023-02-11T01:29:44.023Z,-3.40
2023-02-11T01:32:12.026Z,-3.23
2023-02-11T01:34:40.025Z,-3.19
2023-02-11T01:37:08.077Z,-3.11
2023-02-11T01:39:36.279Z,-3.10
2023-02-11T01:42:04.891Z,-3.12
2023-02-11T01:44:37.918Z,-3.12
2023-02-11T01:47:06.726Z,-3.09
2023-02-11T01:49:37.493Z,-3.07
2023-02-11T01:52:12.002Z,-3.01
2023-02-11T01:55:16.651Z,-3.06
2023-02-11T01:57:48.748Z,-3.04
2023-02-11T02:00:24.360Z,-3.30
2023-02-11T02:02:59.182Z,-3.39
2023-02-11T02:05:34.335Z,-3.63
2023-02-11T02:08:11.040Z,-3.59
2023-02-11T02:10:43.481Z,-3.50
2023-02-11T02:13:12.131Z,-3.56
2023-02-11T02:15:48.625Z,-3.34
2023-02-11T02:18:32.137Z,-3.34
2023-02-11T02:21:32.222Z,-3.27
2023-02-11T02:24:28.875Z,-3.31
2023-02-11T02:27:19.795Z,-3.40
2023-02-11T02:30:12.611Z,-3.36
2023-02-11T02:32:47.833Z,-3.40
2023-02-11T02:35:26.438Z,-3.57
2023-02-11T02:38:02.724Z,-3.40
2023-02-11T02:40:34.487Z,-3.31
2023-02-11T02:43:04.152Z,-3.30
2023-02-11T02:45:32.167Z,-3.33
2023-02-11T02:48:01.550Z,-3.38
2023-02-11T02:50:34.285Z,-3.40
2023-02-11T02:53:19.507Z,-3.31
2023-02-11T02:56:01.306Z,-3.31
2023-02-11T02:58:49.578Z,-3.43
2023-02-11T03:01:27.936Z,-3.43
2023-02-11T03:04:04.290Z,-3.31
2023-02-11T03:06:35.739Z,-3.50
2023-02-11T03:09:11.367Z,-3.50
2023-02-11T03:11:41.079Z,-3.60
2023-02-11T03:14:11.768Z,-3.70
2023-02-11T03:16:41.030Z,-3.65
2023-02-11T03:19:14.635Z,-3.74
2023-02-11T03:21:44.406Z,-3.67
2023-02-11T03:24:18.309Z,-3.91
2023-02-11T03:26:50.888Z,-3.80
2023-02-11T03:29:30.533Z,-3.74
2023-02-11T03:32:05.423Z,-3.74
2023-02-11T03:34:42.712Z,-4.05
2023-02-11T03:37:15.368Z,-3.86
2023-02-11T03:39:48.890Z,-3.96
2023-02-11T03:42:17.975Z,-3.87
2023-02-11T03:44:51.062Z,-3.80
2023-02-11T03:47:23.815Z,-3.89
2023-02-11T03:49:56.636Z,-3.74
2023-02-11T03:52:27.960Z,-3.91
2023-02-11T03:54:59.131Z,-3.81
2023-02-11T03:57:27.265Z,-3.82
2023-02-11T03:59:57.531Z,-3.86
2023-02-11T04:02:28.780Z,-3.81
2023-02-11T04:04:58.526Z,-3.86
2023-02-11T04:07:27.055Z,-4.09
2023-02-11T04:09:55.232Z,-4.11
2023-02-11T04:12:23.555Z,-4.13
2023-02-11T04:14:51.538Z,-4.05
2023-02-11T04:17:19.623Z,-3.83
2023-02-11T04:19:47.572Z,-3.84
2023-02-11T04:22:16.953Z,-3.70
2023-02-11T04:24:45.195Z,-3.81
2023-02-11T04:27:13.236Z,-3.80
2023-02-11T04:29:41.202Z,-3.85
2023-02-11T04:32:09.693Z,-3.71
2023-02-11T04:34:38.189Z,-3.77
2023-02-11T04:37:06.249Z,-3.94
2023-02-11T04:39:35.871Z,-4.03
2023-02-11T04:42:03.930Z,-4.17
2023-02-11T04:44:32.084Z,-4.17
2023-02-11T04:47:00.098Z,-4.17
2023-02-11T04:49:28.061Z,-3.99
2023-02-11T04:51:56.058Z,-3.87
2023-02-11T04:54:24.057Z,-3.83
2023-02-11T04:56:53.423Z,-4.27
2023-02-11T04:59:21.397Z,-4.19
2023-02-11T05:01:49.700Z,-4.05
2023-02-11T05:04:17.866Z,-4.21
2023-02-11T05:06:45.924Z,-4.12
2023-02-11T05:09:14.858Z,-3.93
2023-02-11T05:11:42.961Z,-4.10
2023-02-11T05:14:12.353Z,-4.18
2023-02-11T05:16:40.409Z,-4.39
2023-02-11T05:19:08.482Z,-4.24
2023-02-11T05:21:36.529Z,-4.03
2023-02-11T05:24:04.760Z,-4.07
2023-02-11T05:26:33.655Z,-4.07
2023-02-11T05:29:01.615Z,-4.27
2023-02-11T05:31:30.979Z,-4.22
2023-02-11T05:33:58.925Z,-4.25
2023-02-11T05:36:26.921Z,-4.26
2023-02-11T05:38:54.891Z,-4.16
2023-02-11T05:41:22.964Z,-4.12
2023-02-11T05:43:51.292Z,-4.16
2023-02-11T05:46:19.599Z,-4.07
2023-02-11T05:48:48.937Z,-4.05
2023-02-11T05:51:16.937Z,-4.03
2023-02-11T05:53:44.917Z,-4.04
2023-02-11T05:56:14.682Z,-3.91
2023-02-11T05:58:42.644Z,-4.00
2023-02-11T06:01:10.674Z,-4.01
2023-02-11T06:03:38.697Z,-3.98
2023-02-11T06:06:11.628Z,-4.36
2023-02-11T06:08:39.756Z,-4.44
2023-02-11T06:11:07.952Z,-4.38
2023-02-11T06:13:36.365Z,-4.37
2023-02-11T06:16:04.756Z,-4.26
2023-02-11T06:18:33.693Z,-4.34
2023-02-11T06:21:01.741Z,-4.26
2023-02-11T06:23:31.114Z,-4.19
2023-02-11T06:26:03.222Z,-4.05
2023-02-11T06:28:32.511Z,-4.10
2023-02-11T06:31:06.676Z,-4.13
2023-02-11T06:33:35.286Z,-4.20
2023-02-11T06:36:03.660Z,-4.21
2023-02-11T06:38:33.015Z,-4.07
2023-02-11T06:41:00.984Z,-4.52
2023-02-11T06:43:28.942Z,-4.29
2023-02-11T06:45:57.052Z,-4.39
2023-02-11T06:48:25.310Z,-4.32
2023-02-11T06:50:53.306Z,-4.16
2023-02-11T06:53:21.276Z,-4.11
2023-02-11T06:55:50.956Z,-4.08
2023-02-11T06:58:19.050Z,-4.09
2023-02-11T07:00:47.045Z,-4.26
2023-02-11T07:03:15.086Z,-4.13
2023-02-11T07:05:43.896Z,-4.03
2023-02-11T07:08:11.861Z,-4.13
2023-02-11T07:10:39.901Z,-4.20
2023-02-11T07:13:09.412Z,-4.20
2023-02-11T07:15:38.580Z,-4.01
2023-02-11T07:18:06.615Z,-3.99
2023-02-11T07:20:34.640Z,-3.91
2023-02-11T07:23:02.580Z,-3.76
2023-02-11T07:25:30.585Z,-3.61
2023-02-11T07:27:58.589Z,-3.47
2023-02-11T07:30:27.995Z,-3.58
2023-02-11T07:32:57.286Z,-3.53
2023-02-11T07:35:25.304Z,-3.56
2023-02-11T07:37:53.781Z,-3.52
2023-02-11T07:40:21.977Z,-3.47
2023-02-11T07:42:49.977Z,-3.40
2023-02-11T07:45:18.283Z,-3.40
2023-02-11T07:47:47.655Z,-3.23
2023-02-11T07:50:15.678Z,-3.36
2023-02-11T07:52:43.658Z,-3.09
2023-02-11T07:55:11.701Z,-3.01
2023-02-11T07:57:39.671Z,-3.14
2023-02-11T08:00:08.453Z,-3.23
2023-02-11T08:02:36.416Z,-3.27
2023-02-11T08:05:06.103Z,-3.32
2023-02-11T08:07:34.062Z,-3.36
2023-02-11T08:10:02.063Z,-3.06
2023-02-11T08:12:30.066Z,-2.86
2023-02-11T08:14:58.079Z,-2.93
2023-02-11T08:17:26.048Z,-2.98
2023-02-11T08:19:54.011Z,-2.95
2023-02-11T08:22:23.395Z,-2.82
2023-02-11T08:24:52.465Z,-2.40
2023-02-11T08:27:20.583Z,-2.14
2023-02-11T08:29:48.529Z,-2.56
2023-02-11T08:32:16.593Z,-2.44
2023-02-11T08:34:44.597Z,-2.13
2023-02-11T08:37:12.628Z,-1.93
2023-02-11T08:39:41.979Z,-2.12
2023-02-11T08:42:10.017Z,-2.11
2023-02-11T08:44:38.014Z,-2.07
2023-02-11T08:47:06.140Z,-1.65
2023-02-11T08:49:34.205Z,-1.66
2023-02-11T08:52:04.316Z,-1.53
2023-02-11T08:54:32.695Z,-1.84
2023-02-11T08:57:02.524Z,-1.48
2023-02-11T08:59:30.547Z,-1.51
2023-02-11T09:01:58.931Z,-1.31
2023-02-11T09:04:26.943Z,-1.53
2023-02-11T09:06:54.964Z,-1.62
2023-02-11T09:09:23.040Z,-1.58
2023-02-11T09:11:51.052Z,-1.53
2023-02-11T09:14:23.090Z,-1.48
2023-02-11T09:16:52.050Z,-1.46
2023-02-11T09:19:20.727Z,-1.53
2023-02-11T09:21:48.824Z,-1.49
2023-02-11T09:24:17.003Z,-1.48
2023-02-11T09:26:45.146Z,-1.22
2023-02-11T09:29:13.176Z,-1.17
2023-02-11T09:31:42.658Z,-1.08
2023-02-11T09:34:12.460Z,-0.88
2023-02-11T09:36:41.767Z,-0.79
2023-02-11T09:39:13.202Z,-0.64
2023-02-11T09:42:15.605Z,-0.68
2023-02-11T09:44:46.511Z,-0.74
2023-02-11T09:47:27.064Z,-0.36
2023-02-11T09:50:01.528Z,-0.77
2023-02-11T09:52:38.426Z,-0.40
2023-02-11T09:55:13.841Z,-0.05
2023-02-11T09:57:41.866Z,-0.09
2023-02-11T10:00:22.422Z,-0.17
2023-02-11T10:03:06.348Z,0.29
2023-02-11T10:05:50.139Z,0.30
2023-02-11T10:08:25.409Z,0.45
2023-02-11T10:10:55.524Z,0.13
2023-02-11T10:13:45.030Z,0.50
2023-02-11T10:16:26.262Z,0.37
2023-02-11T10:19:14.115Z,0.33
2023-02-11T10:21:51.718Z,0.53
2023-02-11T10:24:20.465Z,0.99
2023-02-11T10:26:48.479Z,0.64
2023-02-11T10:29:28.129Z,0.97
2023-02-11T10:31:58.317Z,0.78
2023-02-11T10:34:27.845Z,1.18
2023-02-11T10:36:55.863Z,1.00
2023-02-11T10:39:27.265Z,0.82
2023-02-11T10:41:58.295Z,1.25
2023-02-11T10:44:30.077Z,1.30
2023-02-11T10:47:01.060Z,1.57
2023-02-11T10:49:39.305Z,1.82
2023-02-11T10:52:15.578Z,1.93
2023-02-11T10:54:43.582Z,1.78
2023-02-11T10:57:20.418Z,1.53
2023-02-11T10:59:49.569Z,1.52
2023-02-11T11:02:25.000Z,1.78
2023-02-11T11:04:57.622Z,1.87
2023-02-11T11:07:28.418Z,1.88
2023-02-11T11:09:59.800Z,1.99
2023-02-11T11:12:31.378Z,1.96
2023-02-11T11:15:01.308Z,1.72
2023-02-11T11:17:30.220Z,1.61
2023-02-11T11:20:21.086Z,1.88
2023-02-11T11:22:50.215Z,2.15
2023-02-11T11:25:26.963Z,2.18
2023-02-11T11:27:58.944Z,2.23
2023-02-11T11:30:34.767Z,2.29
2023-02-11T11:33:03.355Z,2.41
2023-02-11T11:35:34.215Z,2.61
2023-02-11T11:38:04.332Z,2.61
2023-02-11T11:40:33.792Z,2.87
2023-02-11T11:43:08.372Z,2.41
2023-02-11T11:45:36.408Z,2.77
2023-02-11T11:48:12.878Z,2.99
2023-02-11T11:50:46.172Z,2.74
2023-02-11T11:53:21.910Z,2.89
2023-02-11T11:55:57.300Z,2.82
2023-02-11T11:58:26.754Z,2.89
2023-02-11T12:01:01.117Z,3.12
2023-02-11T12:03:56.127Z,2.66
2023-02-11T12:06:37.570Z,2.50
2023-02-11T12:09:16.127Z,2.72
2023-02-11T12:12:03.740Z,2.75
2023-02-11T12:14:42.455Z,3.21
2023-02-11T12:17:24.567Z,3.40
2023-02-11T12:20:13.212Z,3.58
2023-02-11T12:22:56.105Z,3.67
2023-02-11T12:25:29.439Z,3.70
2023-02-11T12:28:08.686Z,3.58
2023-02-11T12:30:51.157Z,4.15
2023-02-11T12:33:32.801Z,4.49
2023-02-11T12:36:08.165Z,3.95
2023-02-11T12:39:01.438Z,4.45
2023-02-11T12:42:01.710Z,4.29
2023-02-11T12:44:41.858Z,3.88
2023-02-11T12:47:18.794Z,3.97
2023-02-11T12:50:02.406Z,3.89
2023-02-11T12:52:46.601Z,3.91
2023-02-11T12:55:21.065Z,4.50
2023-02-11T12:57:51.573Z,4.27
2023-02-11T13:00:22.315Z,4.72
2023-02-11T13:02:57.575Z,4.75
2023-02-11T13:05:30.339Z,4.83
2023-02-11T13:08:05.960Z,4.90
2023-02-11T13:10:37.858Z,4.85
2023-02-11T13:13:18.187Z,5.01
2023-02-11T13:15:51.320Z,4.93
2023-02-11T13:18:30.154Z,4.59
2023-02-11T13:21:08.821Z,4.65
2023-02-11T13:23:45.831Z,4.58
2023-02-11T13:26:21.653Z,4.73
2023-02-11T13:28:56.280Z,4.69
2023-02-11T13:31:27.603Z,4.36
2023-02-11T13:33:55.728Z,4.45
2023-02-11T13:36:26.209Z,4.23
2023-02-11T13:38:57.895Z,4.50
2023-02-11T13:41:33.136Z,4.48
2023-02-11T13:44:19.301Z,4.50
2023-02-11T13:46:59.281Z,4.61
2023-02-11T13:49:32.768Z,5.31
2023-02-11T13:52:04.156Z,5.38
2023-02-11T13:54:35.656Z,5.24
2023-02-11T13:57:31.914Z,4.90
2023-02-11T14:00:01.064Z,4.67
2023-02-11T14:02:55.232Z,4.88
2023-02-11T14:05:50.357Z,5.31
2023-02-11T14:08:50.388Z,6.36
2023-02-11T14:11:48.335Z,6.23
2023-02-11T14:14:29.146Z,5.99
2023-02-11T14:17:32.073Z,6.31
2023-02-11T14:20:02.273Z,6.61
2023-02-11T14:22:33.028Z,6.56
2023-02-11T14:25:02.250Z,6.88
2023-02-11T14:27:34.747Z,6.64
2023-02-11T14:30:27.759Z,5.93
2023-02-11T14:33:31.628Z,5.96
2023-02-11T14:36:11.841Z,5.62
2023-02-11T14:38:49.555Z,6.33
2023-02-11T14:41:23.532Z,6.46
2023-02-11T14:43:54.159Z,6.53
2023-02-11T14:46:24.811Z,6.70
2023-02-11T14:48:56.287Z,6.55
2023-02-11T14:51:27.448Z,6.97
2023-02-11T14:54:00.719Z,6.99
2023-02-11T14:56:31.624Z,6.70
2023-02-11T14:58:59.784Z,6.35
2023-02-11T15:01:32.831Z,6.55
2023-02-11T15:04:02.868Z,6.91
2023-02-11T15:06:33.154Z,6.82
2023-02-11T15:09:06.356Z,6.68
2023-02-11T15:11:40.291Z,6.89
2023-02-11T15:14:11.682Z,6.81
2023-02-11T15:16:45.963Z,6.33
2023-02-11T15:19:22.919Z,5.67
2023-02-11T15:21:52.032Z,5.94
2023-02-11T15:24:26.938Z,6.32
2023-02-11T15:26:59.453Z,6.32
2023-02-11T15:29:27.905Z,6.04
2023-02-11T15:32:15.401Z,6.24
2023-02-11T15:34:44.088Z,6.11
2023-02-11T15:37:15.261Z,6.17
2023-02-11T15:39:43.830Z,6.29
2023-02-11T15:42:19.903Z,6.27
2023-02-11T15:44:54.324Z,5.80
2023-02-11T15:47:26.041Z,5.77
2023-02-11T15:49:54.050Z,5.74
2023-02-11T15:52:27.631Z,6.04
2023-02-11T15:55:00.734Z,5.98
2023-02-11T15:57:28.982Z,6.11
2023-02-11T15:59:57.555Z,6.09
2023-02-11T16:02:32.603Z,6.11
2023-02-11T16:05:02.651Z,6.15
2023-02-11T16:07:42.735Z,6.00
2023-02-11T16:10:30.185Z,5.61
2023-02-11T16:13:05.713Z,5.62
2023-02-11T16:15:45.958Z,5.61
2023-02-11T16:18:37.904Z,5.85
2023-02-11T16:21:08.964Z,5.51
2023-02-11T16:23:39.174Z,5.25
2023-02-11T16:26:11.398Z,5.05
2023-02-11T16:28:40.748Z,4.91
2023-02-11T16:31:09.913Z,4.75
2023-02-11T16:33:39.330Z,4.53
2023-02-11T16:36:13.340Z,4.51
2023-02-11T16:38:41.676Z,4.33
2023-02-11T16:41:11.924Z,4.18
2023-02-11T16:43:40.291Z,4.03
2023-02-11T16:46:09.453Z,3.99
2023-02-11T16:48:38.862Z,3.79
2023-02-11T16:51:09.833Z,3.66
2023-02-11T16:53:37.836Z,3.54
2023-02-11T16:56:06.364Z,3.37
2023-02-11T16:58:34.370Z,3.08
2023-02-11T17:01:02.540Z,2.86
2023-02-11T17:03:35.694Z,2.86
2023-02-11T17:06:05.835Z,2.87
2023-02-11T17:08:35.741Z,2.82
2023-02-11T17:11:04.538Z,2.83
2023-02-11T17:13:32.812Z,2.63
2023-02-11T17:16:00.816Z,2.62
2023-02-11T17:18:29.416Z,2.62
2023-02-11T17:20:57.418Z,2.59
2023-02-11T17:23:25.399Z,2.57
2023-02-11T17:25:58.338Z,2.34
2023-02-11T17:28:26.372Z,2.29
2023-02-11T17:30:54.423Z,2.34
2023-02-11T17:33:22.533Z,2.39
2023-02-11T17:35:50.905Z,2.34
2023-02-11T17:38:19.174Z,2.26
2023-02-11T17:40:47.121Z,2.21
2023-02-11T17:43:16.957Z,2.09
2023-02-11T17:45:44.980Z,2.03
2023-02-11T17:48:13.027Z,1.99
2023-02-11T17:50:41.005Z,2.03
2023-02-11T17:53:08.985Z,1.94
2023-02-11T17:55:38.568Z,1.97
2023-02-11T17:58:07.072Z,1.87
2023-02-11T18:00:36.422Z,1.87
2023-02-11T18:03:04.560Z,1.86
2023-02-11T18:05:35.585Z,1.89
2023-02-11T18:08:04.250Z,1.80
2023-02-11T18:10:33.625Z,1.91
2023-02-11T18:13:02.258Z,1.93
2023-02-11T18:15:30.269Z,1.79
2023-02-11T18:17:59.672Z,1.70
2023-02-11T18:20:27.678Z,1.70
2023-02-11T18:22:55.685Z,1.69
2023-02-11T18:25:23.741Z,1.60
2023-02-11T18:27:51.720Z,1.65
2023-02-11T18:30:21.267Z,1.68
2023-02-11T18:32:50.874Z,1.55
2023-02-11T18:35:20.367Z,1.57
2023-02-11T18:37:48.483Z,1.46
2023-02-11T18:40:16.920Z,1.52
2023-02-11T18:42:46.883Z,1.53
2023-02-11T18:45:15.720Z,1.54
2023-02-11T18:47:43.889Z,1.53
2023-02-11T18:50:13.988Z,1.51
2023-02-11T18:52:43.754Z,1.44
2023-02-11T18:55:11.734Z,1.38
2023-02-11T18:57:39.776Z,1.43
2023-02-11T19:00:10.171Z,1.40
2023-02-11T19:02:38.200Z,1.32
2023-02-11T19:05:06.966Z,1.17
2023-02-11T19:07:34.990Z,1.10
2023-02-11T19:10:05.249Z,0.97
2023-02-11T19:12:34.065Z,1.07
2023-02-11T19:15:02.124Z,0.96
2023-02-11T19:17:30.162Z,1.02
2023-02-11T19:19:58.147Z,0.94
2023-02-11T19:22:26.151Z,0.92
2023-02-11T19:24:54.109Z,0.96
2023-02-11T19:27:23.494Z,1.02
2023-02-11T19:29:51.473Z,0.92
2023-02-11T19:32:19.543Z,0.92
2023-02-11T19:34:47.509Z,0.69
2023-02-11T19:37:15.523Z,0.70
2023-02-11T19:39:44.383Z,0.55
2023-02-11T19:42:12.787Z,0.66
2023-02-11T19:44:42.255Z,0.60
2023-02-11T19:47:10.836Z,0.73
2023-02-11T19:49:38.786Z,0.63
2023-02-11T19:52:06.783Z,0.74
2023-02-11T19:54:34.837Z,0.66
2023-02-11T19:57:02.858Z,0.66
2023-02-11T19:59:30.825Z,0.69
2023-02-11T20:02:01.627Z,0.53
2023-02-11T20:04:32.198Z,0.58
2023-02-11T20:07:00.309Z,0.49
2023-02-11T20:09:29.139Z,0.55
2023-02-11T20:11:57.134Z,0.56
2023-02-11T20:14:27.562Z,0.31
2023-02-11T20:16:55.988Z,0.41
2023-02-11T20:19:25.355Z,0.36
2023-02-11T20:21:56.052Z,0.25
2023-02-11T20:24:25.773Z,0.08
2023-02-11T20:26:56.116Z,0.23
2023-02-11T20:29:25.386Z,0.01
2023-02-11T20:31:53.600Z,0.01
2023-02-11T20:34:22.122Z,0.18
2023-02-11T20:36:52.954Z,0.15
2023-02-11T20:39:22.904Z,0.28
2023-02-11T20:41:51.619Z,0.23
2023-02-11T20:44:21.508Z,0.08
2023-02-11T20:46:49.823Z,0.05
2023-02-11T20:49:19.667Z,0.13
2023-02-11T20:51:48.040Z,0.09
2023-02-11T20:54:20.146Z,0.06
2023-02-11T20:56:48.696Z,-0.02
2023-02-11T20:59:17.689Z,-0.15
2023-02-11T21:01:48.732Z,-0.19
2023-02-11T21:04:18.635Z,-0.31
2023-02-11T21:06:48.450Z,-0.33
2023-02-11T21:09:20.844Z,-0.39
2023-02-11T21:11:49.106Z,-0.41
2023-02-11T21:14:18.195Z,-0.39
2023-02-11T21:16:46.650Z,-0.47
2023-02-11T21:19:14.663Z,-0.49
2023-02-11T21:21:43.185Z,-0.50
2023-02-11T21:24:12.201Z,-0.44
2023-02-11T21:26:41.667Z,-0.41
2023-02-11T21:29:11.739Z,-0.44
2023-02-11T21:31:40.244Z,-0.40
2023-02-11T21:34:08.729Z,-0.36
2023-02-11T21:36:36.787Z,-0.40
2023-02-11T21:39:06.043Z,-0.39
2023-02-11T21:41:34.212Z,-0.43
2023-02-11T21:44:05.867Z,-0.43
2023-02-11T21:46:33.931Z,-0.30
2023-02-11T21:49:01.959Z,-0.33
2023-02-11T21:51:30.016Z,-0.25
2023-02-11T21:54:01.218Z,-0.34
2023-02-11T21:56:30.330Z,-0.58
2023-02-11T21:58:59.761Z,-0.58
2023-02-11T22:01:31.213Z,-0.59
2023-02-11T22:03:59.469Z,-0.61
2023-02-11T22:06:31.163Z,-0.60
2023-02-11T22:09:00.173Z,-0.66
2023-02-11T22:11:28.211Z,-0.64
2023-02-11T22:13:56.585Z,-0.63
2023-02-11T22:16:25.429Z,-0.88
2023-02-11T22:18:55.203Z,-0.70
2023-02-11T22:21:24.160Z,-0.74
2023-02-11T22:23:52.755Z,-0.78
2023-02-11T22:26:22.914Z,-0.77
2023-02-11T22:28:51.970Z,-0.97
2023-02-11T22:31:22.584Z,-0.91
2023-02-11T22:33:51.009Z,-1.12
2023-02-11T22:36:22.288Z,-1.25
2023-02-11T22:38:50.603Z,-1.17
2023-02-11T22:41:19.562Z,-1.11
2023-02-11T22:43:48.014Z,-0.94
2023-02-11T22:46:18.321Z,-0.88
2023-02-11T22:48:46.579Z,-0.85
2023-02-11T22:51:17.520Z,-0.80
2023-02-11T22:53:50.592Z,-0.75
2023-02-11T22:56:19.117Z,-0.78
2023-02-11T22:58:47.277Z,-0.87
2023-02-11T23:01:15.693Z,-0.90
2023-02-11T23:03:44.049Z,-0.91
2023-02-11T23:06:12.647Z,-0.93
2023-02-11T23:08:41.427Z,-0.99
2023-02-11T23:11:13.067Z,-0.95
2023-02-11T23:13:42.860Z,-0.82
2023-02-11T23:16:12.891Z,-0.95
2023-02-11T23:18:42.984Z,-0.93
2023-02-11T23:21:13.666Z,-0.94
2023-02-11T23:23:41.662Z,-0.93
2023-02-11T23:26:13.420Z,-0.87
2023-02-11T23:28:45.966Z,-0.92
2023-02-11T23:31:16.393Z,-0.80
2023-02-11T23:33:44.439Z,-0.72
2023-02-11T23:36:12.613Z,-0.73
2023-02-11T23:38:40.673Z,-0.73
2023-02-11T23:41:09.009Z,-0.68
2023-02-11T23:43:38.538Z,-0.77
2023-02-11T23:46:07.622Z,-0.91
2023-02-11T23:48:37.950Z,-0.94
2023-02-11T23:51:06.605Z,-0.88
2023-02-11T23:53:34.621Z,-0.78
2023-02-11T23:56:02.610Z,-0.88
2023-02-11T23:58:30.904Z,-0.93
